Time;durP1;ratioP1;P1;durP2;ratioP2;P2;SDS_P1;SDS_P2;PMS_P1;PMS_P2;Temp;Humidity;BMP_temperature;BMP_pressure;BME280_temperature;BME280_humidity;BME280_pressure;Samples;Min_cycle;Max_cycle;Signal;HPM_P1;HPM_P2
2021/06/29 00:00:45;;;;;;;;;;;28.00;92.00;;;;;;5103918;28;19908;-42
2021/06/29 00:03:11;;;;;;;;;;;28.00;92.10;;;;;;5104454;28;19974;-46
2021/06/29 00:05:38;;;;;;;;;;;28.00;92.10;;;;;;5103892;28;20025;-44
2021/06/29 00:08:07;;;;;;;;;;;28.00;92.10;;;;;;5104158;28;19948;-50
2021/06/29 00:10:34;;;;;;;;;;;28.00;92.20;;;;;;5104520;28;19949;-43
2021/06/29 00:13:00;;;;;;;;;;;28.00;92.30;;;;;;5103228;28;19912;-47
2021/06/29 00:15:27;;;;;;;;;;;28.00;92.30;;;;;;5103721;28;19950;-55
2021/06/29 00:17:53;;;;;;;;;;;28.00;92.30;;;;;;5105192;28;20200;-51
2021/06/29 00:20:20;;;;;;;;;;;27.90;92.10;;;;;;5105048;28;19904;-41
2021/06/29 00:22:46;;;;;;;;;;;27.90;92.20;;;;;;5105028;28;19916;-48
2021/06/29 00:25:13;;;;;;;;;;;27.90;92.20;;;;;;5104677;28;19908;-42
2021/06/29 00:27:40;;;;;;;;;;;27.90;92.20;;;;;;5103742;28;19919;-46
2021/06/29 00:30:07;;;;;;;;;;;27.90;92.20;;;;;;5102031;28;19946;-46
2021/06/29 00:32:33;;;;;;;;;;;27.90;92.30;;;;;;5103687;28;19912;-48
2021/06/29 00:34:59;;;;;;;;;;;27.90;92.30;;;;;;5102904;28;19904;-47
2021/06/29 00:37:26;;;;;;;;;;;27.90;92.30;;;;;;5101922;28;20211;-47
2021/06/29 00:39:53;;;;;;;;;;;27.90;92.60;;;;;;5103311;28;19920;-45
2021/06/29 00:42:19;;;;;;;;;;;27.80;92.30;;;;;;5102469;28;19912;-49
2021/06/29 00:45:17;;;;;;;;;;;27.80;92.30;;;;;;5068859;28;20115;-51
2021/06/29 00:47:43;;;;;;;;;;;27.80;92.30;;;;;;5094477;28;19912;-45
2021/06/29 00:50:10;;;;;;;;;;;27.80;92.30;;;;;;5103677;28;19910;-48
2021/06/29 00:52:38;;;;;;;;;;;27.90;92.30;;;;;;5104674;28;19979;-47
2021/06/29 00:55:04;;;;;;;;;;;27.80;92.30;;;;;;5105138;28;19911;-51
2021/06/29 00:57:31;;;;;;;;;;;27.80;92.30;;;;;;5103490;28;19912;-51
2021/06/29 00:59:57;;;;;;;;;;;27.80;92.30;;;;;;5103700;28;19945;-48
2021/06/29 01:02:23;;;;;;;;;;;27.80;92.30;;;;;;5103134;28;19916;-54
2021/06/29 01:04:50;;;;;;;;;;;27.80;92.20;;;;;;5103885;28;19915;-49
2021/06/29 01:07:18;;;;;;;;;;;27.70;92.00;;;;;;5104566;28;19939;-50
2021/06/29 01:09:53;;;;;;;;;;;27.70;92.00;;;;;;5104808;28;20192;-47
2021/06/29 01:12:19;;;;;;;;;;;27.60;91.70;;;;;;5106740;28;19912;-54
2021/06/29 01:14:46;;;;;;;;;;;27.60;91.80;;;;;;5103845;28;19904;-52
2021/06/29 01:17:12;;;;;;;;;;;27.50;91.60;;;;;;5104163;28;19912;-52
2021/06/29 01:19:48;;;;;;;;;;;27.50;91.60;;;;;;5104261;28;19904;-53
2021/06/29 01:22:15;;;;;;;;;;;27.40;91.50;;;;;;5115312;28;19912;-46
2021/06/29 01:24:44;;;;;;;;;;;27.30;91.70;;;;;;5124084;28;20263;-50
2021/06/29 01:32:18;;;;;;;;;;;27.20;92.00;;;;;;5102352;28;19997;-51
2021/06/29 01:34:44;;;;;;;;;;;27.20;91.80;;;;;;5102453;28;19939;-49
2021/06/29 01:37:11;;;;;;;;;;;27.20;92.00;;;;;;5112745;28;19912;-51
2021/06/29 01:39:38;;;;;;;;;;;27.10;92.30;;;;;;5123524;28;20215;-48
2021/06/29 01:42:04;;;;;;;;;;;27.10;92.70;;;;;;5124399;28;19919;-50
2021/06/29 01:44:33;;;;;;;;;;;27.10;92.70;;;;;;5122285;28;19903;-47
2021/06/29 01:47:03;;;;;;;;;;;27.10;92.90;;;;;;5124168;28;19908;-56
2021/06/29 01:49:31;;;;;;;;;;;27.10;93.20;;;;;;5124073;28;19908;-48
2021/06/29 01:51:57;;;;;;;;;;;27.10;93.40;;;;;;5122837;28;19981;-47
2021/06/29 01:54:24;;;;;;;;;;;27.10;93.50;;;;;;5121975;28;19953;-51
2021/06/29 01:56:50;;;;;;;;;;;27.10;93.30;;;;;;5111153;28;19954;-45
2021/06/29 01:59:21;;;;;;;;;;;27.00;93.20;;;;;;5123739;28;19940;-52
2021/06/29 02:01:48;;;;;;;;;;;27.00;93.10;;;;;;5125019;28;19915;-43
2021/06/29 02:04:14;;;;;;;;;;;26.90;93.00;;;;;;5127994;28;19904;-47
2021/06/29 02:06:41;;;;;;;;;;;27.00;93.10;;;;;;5115145;28;19911;-48
2021/06/29 02:09:08;;;;;;;;;;;27.00;93.20;;;;;;5126146;28;19915;-52
2021/06/29 02:11:36;;;;;;;;;;;27.00;93.30;;;;;;5127589;28;19903;-49
2021/06/29 02:14:06;;;;;;;;;;;26.90;93.10;;;;;;5127281;28;19908;-47
2021/06/29 02:16:33;;;;;;;;;;;26.90;93.10;;;;;;5127883;28;19952;-56
2021/06/29 02:18:59;;;;;;;;;;;26.90;93.00;;;;;;5127709;28;19908;-48
2021/06/29 02:21:26;;;;;;;;;;;26.90;93.00;;;;;;5127537;28;19903;-52
2021/06/29 02:23:52;;;;;;;;;;;26.90;93.20;;;;;;5127616;28;19944;-46
2021/06/29 02:26:19;;;;;;;;;;;26.90;93.30;;;;;;5127271;28;19908;-52
2021/06/29 02:28:45;;;;;;;;;;;26.90;93.30;;;;;;5127577;28;19912;-46
2021/06/29 02:31:13;;;;;;;;;;;26.90;93.60;;;;;;5119548;28;19915;-47
2021/06/29 02:33:39;;;;;;;;;;;26.90;93.50;;;;;;5107462;28;19916;-53
2021/06/29 02:36:05;;;;;;;;;;;26.90;93.60;;;;;;5116572;28;19980;-52
2021/06/29 02:38:32;;;;;;;;;;;26.90;93.60;;;;;;5106923;28;20007;-51
2021/06/29 02:40:58;;;;;;;;;;;26.90;93.70;;;;;;5117549;28;19916;-50
2021/06/29 02:43:24;;;;;;;;;;;26.90;93.80;;;;;;5106372;28;19919;-55
2021/06/29 02:45:50;;;;;;;;;;;26.90;93.90;;;;;;5120839;28;19916;-50
2021/06/29 02:48:17;;;;;;;;;;;26.90;93.50;;;;;;5109216;27;20094;-52
2021/06/29 02:50:43;;;;;;;;;;;26.90;93.30;;;;;;5119784;28;20219;-52
2021/06/29 02:53:09;;;;;;;;;;;26.90;93.40;;;;;;5112071;28;19915;-55
2021/06/29 02:55:35;;;;;;;;;;;26.90;93.40;;;;;;5118666;28;19911;-45
2021/06/29 02:58:02;;;;;;;;;;;26.90;93.60;;;;;;5112337;28;19952;-49
2021/06/29 03:00:28;;;;;;;;;;;26.90;93.70;;;;;;5105811;28;19966;-51
2021/06/29 03:02:54;;;;;;;;;;;26.90;93.90;;;;;;5106575;28;19957;-45
2021/06/29 03:05:21;;;;;;;;;;;26.90;93.90;;;;;;5106474;28;19912;-49
2021/06/29 03:07:47;;;;;;;;;;;26.90;93.90;;;;;;5106097;28;20184;-48
2021/06/29 03:10:13;;;;;;;;;;;27.00;93.80;;;;;;5113058;28;19951;-45
2021/06/29 03:12:39;;;;;;;;;;;27.00;93.70;;;;;;5126321;28;19915;-50
2021/06/29 03:15:06;;;;;;;;;;;26.90;93.50;;;;;;5125944;28;19908;-46
2021/06/29 03:17:33;;;;;;;;;;;27.00;93.50;;;;;;5126432;28;19908;-50
2021/06/29 03:20:03;;;;;;;;;;;27.00;93.40;;;;;;5125077;28;19915;-45
2021/06/29 03:22:30;;;;;;;;;;;27.00;93.30;;;;;;5126493;28;19952;-45
2021/06/29 03:24:57;;;;;;;;;;;27.00;93.50;;;;;;5125496;28;19920;-46
2021/06/29 03:27:23;;;;;;;;;;;26.90;93.10;;;;;;5112714;28;19912;-48
2021/06/29 03:29:49;;;;;;;;;;;26.90;92.90;;;;;;5105665;28;19915;-44
2021/06/29 03:32:15;;;;;;;;;;;27.00;92.90;;;;;;5105834;28;19912;-48
2021/06/29 03:34:41;;;;;;;;;;;26.90;93.00;;;;;;5105727;28;19904;-45
2021/06/29 03:37:08;;;;;;;;;;;26.90;93.00;;;;;;5105891;28;19950;-45
2021/06/29 03:39:35;;;;;;;;;;;26.90;92.90;;;;;;5105225;28;19963;-45
2021/06/29 03:42:01;;;;;;;;;;;26.90;93.00;;;;;;5103532;28;20019;-46
2021/06/29 03:44:28;;;;;;;;;;;26.90;93.00;;;;;;5106112;28;19905;-48
2021/06/29 03:46:54;;;;;;;;;;;26.90;93.10;;;;;;5104300;28;19919;-48
2021/06/29 03:49:22;;;;;;;;;;;26.90;93.00;;;;;;5105386;28;20096;-47
2021/06/29 03:51:50;;;;;;;;;;;26.90;93.10;;;;;;5105480;28;20127;-44
2021/06/29 03:54:16;;;;;;;;;;;26.90;93.20;;;;;;5105169;28;19908;-45
2021/06/29 03:56:42;;;;;;;;;;;26.90;93.20;;;;;;5104896;28;20135;-44
2021/06/29 03:59:09;;;;;;;;;;;26.90;93.20;;;;;;5104927;28;19904;-52
2021/06/29 04:01:36;;;;;;;;;;;26.90;93.10;;;;;;5105149;28;19904;-45
2021/06/29 04:04:03;;;;;;;;;;;26.80;93.10;;;;;;5105309;28;20246;-45
2021/06/29 04:06:30;;;;;;;;;;;26.80;93.10;;;;;;5104939;28;20097;-45
2021/06/29 04:08:58;;;;;;;;;;;26.80;93.20;;;;;;5103804;28;20127;-44
2021/06/29 04:11:24;;;;;;;;;;;26.80;93.20;;;;;;5103168;28;19904;-58
2021/06/29 04:13:51;;;;;;;;;;;26.80;93.20;;;;;;5102722;28;19912;-46
2021/06/29 04:16:17;;;;;;;;;;;26.70;93.20;;;;;;5103770;28;19904;-47
2021/06/29 04:18:44;;;;;;;;;;;26.70;93.10;;;;;;5124747;28;20089;-48
2021/06/29 04:21:11;;;;;;;;;;;26.90;92.90;;;;;;5120146;28;20212;-47
2021/06/29 04:23:38;;;;;;;;;;;26.90;92.80;;;;;;5123782;28;19943;-45
2021/06/29 04:26:05;;;;;;;;;;;26.90;92.90;;;;;;5125017;28;19907;-45
2021/06/29 04:28:31;;;;;;;;;;;26.80;92.90;;;;;;5124322;28;19911;-51
2021/06/29 04:30:57;;;;;;;;;;;26.90;93.00;;;;;;5123564;28;19903;-47
2021/06/29 04:33:24;;;;;;;;;;;26.80;92.90;;;;;;5123675;28;19939;-49
2021/06/29 04:35:50;;;;;;;;;;;26.80;93.00;;;;;;5123397;28;19904;-47
2021/06/29 04:38:17;;;;;;;;;;;26.80;93.00;;;;;;5121979;28;19912;-51
2021/06/29 04:40:43;;;;;;;;;;;26.70;93.00;;;;;;5116798;28;19912;-46
2021/06/29 04:43:09;;;;;;;;;;;26.80;93.00;;;;;;5117715;28;19950;-49
2021/06/29 04:45:35;;;;;;;;;;;26.70;93.00;;;;;;5124872;28;19912;-44
2021/06/29 04:48:02;;;;;;;;;;;26.70;92.90;;;;;;5111442;28;19938;-46
2021/06/29 04:50:28;;;;;;;;;;;26.70;93.00;;;;;;5104540;28;20193;-46
2021/06/29 04:52:54;;;;;;;;;;;26.70;93.00;;;;;;5104382;28;19953;-45
2021/06/29 04:55:20;;;;;;;;;;;26.70;93.00;;;;;;5104263;28;20216;-46
2021/06/29 04:57:46;;;;;;;;;;;26.60;93.00;;;;;;5115728;28;19927;-53
2021/06/29 05:00:15;;;;;;;;;;;26.70;93.10;;;;;;5114093;28;19908;-46
2021/06/29 05:02:42;;;;;;;;;;;26.60;93.10;;;;;;5115336;28;20092;-46
2021/06/29 05:05:08;;;;;;;;;;;26.60;93.10;;;;;;5124983;28;19978;-46
2021/06/29 05:07:38;;;;;;;;;;;26.60;93.10;;;;;;5112983;28;20279;-44
2021/06/29 05:10:05;;;;;;;;;;;26.70;92.90;;;;;;5104046;28;19904;-48
2021/06/29 05:12:31;;;;;;;;;;;26.70;92.90;;;;;;5104037;28;19918;-45
2021/06/29 05:14:57;;;;;;;;;;;26.60;92.70;;;;;;5103111;28;19908;-46
2021/06/29 05:17:24;;;;;;;;;;;26.60;92.80;;;;;;5104208;28;19912;-47
2021/06/29 05:19:50;;;;;;;;;;;26.60;92.90;;;;;;5104237;28;19928;-50
2021/06/29 05:22:16;;;;;;;;;;;26.50;92.80;;;;;;5103775;28;19957;-42
2021/06/29 05:24:42;;;;;;;;;;;26.50;92.70;;;;;;5104014;28;20200;-45
2021/06/29 05:27:08;;;;;;;;;;;26.40;92.60;;;;;;5104115;28;19957;-49
2021/06/29 05:29:35;;;;;;;;;;;26.40;92.50;;;;;;5102898;28;20216;-54
2021/06/29 05:32:01;;;;;;;;;;;26.40;92.40;;;;;;5103953;28;19951;-49
2021/06/29 05:34:27;;;;;;;;;;;26.40;92.30;;;;;;5104004;28;19983;-44
2021/06/29 05:36:53;;;;;;;;;;;26.40;92.20;;;;;;5104743;28;19998;-44
2021/06/29 05:39:19;;;;;;;;;;;26.30;92.00;;;;;;5107711;28;20113;-44
2021/06/29 05:41:46;;;;;;;;;;;26.30;91.90;;;;;;5107910;28;20077;-47
2021/06/29 05:44:12;;;;;;;;;;;26.30;92.00;;;;;;5107875;28;19938;-45
2021/06/29 05:46:40;;;;;;;;;;;26.30;92.00;;;;;;5107770;28;19912;-48
2021/06/29 05:49:10;;;;;;;;;;;26.30;91.90;;;;;;5107710;28;19900;-52
2021/06/29 05:51:37;;;;;;;;;;;26.30;91.90;;;;;;5107711;28;19906;-45
2021/06/29 05:54:03;;;;;;;;;;;26.30;91.70;;;;;;5107748;28;19904;-45
2021/06/29 05:56:29;;;;;;;;;;;26.30;91.70;;;;;;5107490;28;19900;-49
2021/06/29 05:58:56;;;;;;;;;;;26.20;91.70;;;;;;5107539;28;20096;-45
2021/06/29 06:01:22;;;;;;;;;;;26.30;91.80;;;;;;5107596;28;19904;-44
2021/06/29 06:03:48;;;;;;;;;;;26.20;91.70;;;;;;5107891;28;19915;-44
2021/06/29 06:06:14;;;;;;;;;;;26.20;91.80;;;;;;5107386;28;19911;-42
2021/06/29 06:08:40;;;;;;;;;;;26.20;91.80;;;;;;5106962;28;19939;-49
2021/06/29 06:11:07;;;;;;;;;;;26.20;91.70;;;;;;5107412;28;19899;-46
2021/06/29 06:13:33;;;;;;;;;;;26.10;91.70;;;;;;5107671;28;20180;-47
2021/06/29 06:16:01;;;;;;;;;;;26.10;91.90;;;;;;5104970;28;19900;-48
2021/06/29 06:18:28;;;;;;;;;;;26.10;92.00;;;;;;5105876;28;19908;-48
2021/06/29 06:20:54;;;;;;;;;;;26.20;92.00;;;;;;5105534;28;19900;-56
2021/06/29 06:23:20;;;;;;;;;;;26.10;92.10;;;;;;5106620;28;19915;-48
2021/06/29 06:25:47;;;;;;;;;;;26.10;92.10;;;;;;5104788;28;19904;-55
2021/06/29 06:28:13;;;;;;;;;;;26.10;92.10;;;;;;5106677;28;19908;-49
2021/06/29 06:30:41;;;;;;;;;;;26.10;92.20;;;;;;5107118;28;20204;-48
2021/06/29 06:33:08;;;;;;;;;;;26.10;92.20;;;;;;5107220;28;19915;-45
2021/06/29 06:35:35;;;;;;;;;;;26.10;92.20;;;;;;5106959;28;19907;-46
2021/06/29 06:38:01;;;;;;;;;;;26.10;92.30;;;;;;5107307;28;19915;-45
2021/06/29 06:40:28;;;;;;;;;;;26.10;92.50;;;;;;5106645;28;19954;-46
2021/06/29 06:42:54;;;;;;;;;;;26.10;92.40;;;;;;5107153;28;19908;-45
2021/06/29 06:45:23;;;;;;;;;;;26.10;92.40;;;;;;5106708;28;19979;-47
2021/06/29 06:47:50;;;;;;;;;;;26.10;92.50;;;;;;5106472;28;19908;-52
2021/06/29 06:50:17;;;;;;;;;;;26.10;92.50;;;;;;5106067;28;19973;-49
2021/06/29 06:52:43;;;;;;;;;;;26.10;92.60;;;;;;5106844;28;20192;-49
2021/06/29 06:55:09;;;;;;;;;;;26.10;92.60;;;;;;5106500;28;19935;-45
2021/06/29 06:57:35;;;;;;;;;;;26.10;92.70;;;;;;5106783;28;20315;-51
2021/06/29 07:00:03;;;;;;;;;;;26.10;92.70;;;;;;5106533;28;19941;-52
2021/06/29 07:02:29;;;;;;;;;;;26.10;92.70;;;;;;5106655;28;19932;-45
2021/06/29 07:04:56;;;;;;;;;;;26.10;92.70;;;;;;5106223;28;19910;-47
2021/06/29 07:07:22;;;;;;;;;;;26.10;92.70;;;;;;5106510;28;19908;-50
2021/06/29 07:09:48;;;;;;;;;;;26.10;92.80;;;;;;5106295;28;19900;-45
2021/06/29 07:12:14;;;;;;;;;;;26.10;92.70;;;;;;5106207;28;19937;-44
2021/06/29 07:14:40;;;;;;;;;;;26.10;92.70;;;;;;5106126;28;19907;-49
2021/06/29 07:17:07;;;;;;;;;;;26.00;92.70;;;;;;5106285;28;19912;-45
2021/06/29 07:19:33;;;;;;;;;;;26.00;92.60;;;;;;5105933;28;19935;-45
2021/06/29 07:21:59;;;;;;;;;;;26.00;92.50;;;;;;5106066;28;19911;-46
2021/06/29 07:24:25;;;;;;;;;;;26.00;92.50;;;;;;5106016;28;20200;-47
2021/06/29 07:26:51;;;;;;;;;;;26.00;92.50;;;;;;5105747;28;19935;-45
2021/06/29 07:29:18;;;;;;;;;;;26.00;92.40;;;;;;5105916;28;19900;-52
2021/06/29 07:31:45;;;;;;;;;;;26.00;92.30;;;;;;5105851;28;19947;-51
2021/06/29 07:34:11;;;;;;;;;;;26.00;92.20;;;;;;5105659;28;19907;-44
2021/06/29 07:36:37;;;;;;;;;;;26.00;92.20;;;;;;5105805;28;20141;-49
2021/06/29 07:39:04;;;;;;;;;;;26.00;92.20;;;;;;5105539;28;19971;-48
2021/06/29 07:41:30;;;;;;;;;;;26.00;92.30;;;;;;5105565;28;19907;-46
2021/06/29 07:43:56;;;;;;;;;;;26.00;92.20;;;;;;5105571;28;19900;-49
2021/06/29 07:46:25;;;;;;;;;;;26.00;92.20;;;;;;5104281;28;20196;-51
2021/06/29 07:48:52;;;;;;;;;;;26.00;92.30;;;;;;5105370;28;19940;-54
2021/06/29 07:51:18;;;;;;;;;;;26.00;92.30;;;;;;5105630;28;20233;-46
2021/06/29 07:53:44;;;;;;;;;;;26.00;92.30;;;;;;5104506;28;20096;-44
2021/06/29 07:56:14;;;;;;;;;;;26.00;92.20;;;;;;5105354;28;19937;-53
2021/06/29 07:58:42;;;;;;;;;;;26.00;92.30;;;;;;5105844;28;19915;-45
2021/06/29 08:01:08;;;;;;;;;;;26.00;92.20;;;;;;5105176;28;19904;-44
2021/06/29 08:03:35;;;;;;;;;;;26.00;92.20;;;;;;5105644;28;19908;-44
2021/06/29 08:06:01;;;;;;;;;;;26.00;92.20;;;;;;5105093;28;19968;-44
2021/06/29 08:08:27;;;;;;;;;;;26.00;92.20;;;;;;5105140;28;19986;-46
2021/06/29 08:10:53;;;;;;;;;;;26.00;91.90;;;;;;5105113;28;19907;-60
2021/06/29 08:13:19;;;;;;;;;;;26.00;91.90;;;;;;5105331;28;19915;-46
2021/06/29 08:15:46;;;;;;;;;;;26.00;91.90;;;;;;5105039;28;19907;-45
2021/06/29 08:18:12;;;;;;;;;;;26.00;91.90;;;;;;5105331;28;19908;-40
2021/06/29 08:20:38;;;;;;;;;;;25.90;91.90;;;;;;5104843;28;19900;-44
2021/06/29 08:23:06;;;;;;;;;;;26.00;91.90;;;;;;5105449;28;19967;-44
2021/06/29 08:25:33;;;;;;;;;;;26.00;91.80;;;;;;5104876;28;19949;-49
2021/06/29 08:27:59;;;;;;;;;;;26.00;91.90;;;;;;5105024;28;19908;-52
2021/06/29 08:30:26;;;;;;;;;;;26.00;91.90;;;;;;5104932;28;19970;-51
2021/06/29 08:32:53;;;;;;;;;;;25.90;92.00;;;;;;5105137;28;19908;-52
2021/06/29 08:35:19;;;;;;;;;;;26.00;92.00;;;;;;5104649;28;19900;-47
2021/06/29 08:37:46;;;;;;;;;;;25.90;92.00;;;;;;5105046;28;19946;-53
2021/06/29 08:40:14;;;;;;;;;;;25.90;92.00;;;;;;5104616;28;20193;-47
2021/06/29 08:42:41;;;;;;;;;;;25.90;92.00;;;;;;5104785;28;19908;-48
2021/06/29 08:45:13;;;;;;;;;;;25.90;92.10;;;;;;5104578;28;19915;-54
2021/06/29 08:47:40;;;;;;;;;;;25.90;92.30;;;;;;5103479;28;19908;-47
2021/06/29 08:50:08;;;;;;;;;;;25.90;92.20;;;;;;5104479;28;20077;-45
2021/06/29 08:52:35;;;;;;;;;;;25.90;92.30;;;;;;5104804;28;19908;-46
2021/06/29 08:55:01;;;;;;;;;;;25.90;92.30;;;;;;5104539;28;19938;-48
2021/06/29 08:57:28;;;;;;;;;;;25.90;92.40;;;;;;5104563;28;19915;-54
2021/06/29 08:59:54;;;;;;;;;;;25.90;92.50;;;;;;5104482;28;19938;-47
2021/06/29 09:02:20;;;;;;;;;;;25.90;92.70;;;;;;5104589;28;19915;-53
2021/06/29 09:04:49;;;;;;;;;;;25.90;92.80;;;;;;5104202;28;19922;-55
2021/06/29 09:07:16;;;;;;;;;;;25.90;92.90;;;;;;5104597;28;19908;-47
2021/06/29 09:10:02;;;;;;;;;;;25.90;92.90;;;;;;5104411;28;19977;-47
2021/06/29 09:12:48;;;;;;;;;;;25.90;93.00;;;;;;5106115;28;19908;-47
2021/06/29 09:15:21;;;;;;;;;;;25.90;93.00;;;;;;5108456;28;19903;-50
2021/06/29 09:17:47;;;;;;;;;;;25.90;92.90;;;;;;5108764;28;19975;-48
2021/06/29 09:20:14;;;;;;;;;;;25.90;92.90;;;;;;5108464;28;20188;-57
2021/06/29 09:22:40;;;;;;;;;;;25.90;93.00;;;;;;5108479;28;19915;-54
2021/06/29 09:25:22;;;;;;;;;;;25.90;93.00;;;;;;5108345;28;19903;-49
2021/06/29 09:27:50;;;;;;;;;;;25.90;93.10;;;;;;5108403;28;19970;-46
2021/06/29 09:30:28;;;;;;;;;;;25.90;93.10;;;;;;5108198;28;19978;-52
2021/06/29 09:33:08;;;;;;;;;;;25.90;93.20;;;;;;5108408;28;19951;-49
2021/06/29 09:35:35;;;;;;;;;;;25.90;93.30;;;;;;5108134;28;19900;-52
2021/06/29 09:38:01;;;;;;;;;;;25.90;93.30;;;;;;5108408;28;19908;-49
2021/06/29 09:40:29;;;;;;;;;;;25.90;93.30;;;;;;5107816;28;19919;-47
2021/06/29 09:43:13;;;;;;;;;;;25.90;93.30;;;;;;5108415;28;19948;-47
2021/06/29 09:45:45;;;;;;;;;;;25.90;93.40;;;;;;5107857;28;19912;-50
2021/06/29 09:48:12;;;;;;;;;;;25.80;93.40;;;;;;5108274;28;19926;-46
2021/06/29 09:50:38;;;;;;;;;;;25.80;93.40;;;;;;5107848;28;19903;-47
2021/06/29 09:53:14;;;;;;;;;;;25.80;93.60;;;;;;5107626;28;19918;-49
2021/06/29 09:55:42;;;;;;;;;;;25.80;93.80;;;;;;5107713;28;19904;-50
2021/06/29 09:58:09;;;;;;;;;;;25.80;93.80;;;;;;5108101;28;19904;-46
2021/06/29 10:00:45;;;;;;;;;;;25.80;93.90;;;;;;5107483;28;19911;-50
2021/06/29 10:03:24;;;;;;;;;;;25.80;93.90;;;;;;5106588;28;19946;-48
2021/06/29 10:05:52;;;;;;;;;;;25.80;93.90;;;;;;5107302;28;20124;-47
2021/06/29 10:08:23;;;;;;;;;;;25.80;93.90;;;;;;5107904;28;19904;-46
2021/06/29 10:10:49;;;;;;;;;;;25.80;93.90;;;;;;5107479;28;19908;-48
2021/06/29 10:13:18;;;;;;;;;;;25.80;93.90;;;;;;5107585;28;19908;-49
2021/06/29 10:15:45;;;;;;;;;;;25.80;93.90;;;;;;5107431;28;20215;-45
2021/06/29 10:18:12;;;;;;;;;;;25.80;93.90;;;;;;5107704;28;19904;-47
2021/06/29 10:20:49;;;;;;;;;;;25.80;93.80;;;;;;5105913;28;19904;-48
2021/06/29 10:23:16;;;;;;;;;;;25.80;93.90;;;;;;5107460;28;19904;-47
2021/06/29 10:25:43;;;;;;;;;;;25.80;93.90;;;;;;5106987;28;19908;-54
2021/06/29 10:28:13;;;;;;;;;;;25.80;94.00;;;;;;5107482;28;19943;-48
2021/06/29 10:30:40;;;;;;;;;;;25.80;94.00;;;;;;5107172;28;19904;-54
2021/06/29 10:33:07;;;;;;;;;;;25.80;94.00;;;;;;5107338;28;20136;-48
2021/06/29 10:35:36;;;;;;;;;;;25.70;94.00;;;;;;5107093;28;20193;-47
2021/06/29 10:38:03;;;;;;;;;;;25.80;94.10;;;;;;5106884;28;19911;-51
2021/06/29 10:40:30;;;;;;;;;;;25.80;94.10;;;;;;5106819;28;19908;-48
2021/06/29 10:42:58;;;;;;;;;;;25.80;94.20;;;;;;5106838;28;19931;-47
2021/06/29 10:45:31;;;;;;;;;;;25.80;94.30;;;;;;5106824;28;19984;-46
2021/06/29 10:48:16;;;;;;;;;;;25.80;94.20;;;;;;5106955;28;19915;-46
2021/06/29 10:50:42;;;;;;;;;;;25.70;94.20;;;;;;5106668;28;19936;-48
2021/06/29 10:53:27;;;;;;;;;;;25.70;94.10;;;;;;5106900;28;19908;-54
2021/06/29 10:55:53;;;;;;;;;;;25.70;94.20;;;;;;5106630;28;19900;-51
2021/06/29 10:58:33;;;;;;;;;;;25.70;94.30;;;;;;5106866;28;19908;-45
2021/06/29 11:01:17;;;;;;;;;;;25.70;94.30;;;;;;5106495;28;19930;-46
2021/06/29 11:03:43;;;;;;;;;;;25.70;94.30;;;;;;5106841;28;19907;-49
2021/06/29 11:06:10;;;;;;;;;;;25.70;94.30;;;;;;5106201;28;20219;-54
2021/06/29 11:08:47;;;;;;;;;;;25.70;94.30;;;;;;5106830;28;20184;-47
2021/06/29 11:11:13;;;;;;;;;;;25.70;94.40;;;;;;5106246;28;19907;-51
2021/06/29 11:13:41;;;;;;;;;;;25.70;94.40;;;;;;5106613;28;19985;-46
2021/06/29 11:16:07;;;;;;;;;;;25.70;94.50;;;;;;5106184;28;19906;-46
2021/06/29 11:18:33;;;;;;;;;;;25.70;94.60;;;;;;5106524;28;19908;-53
2021/06/29 11:21:02;;;;;;;;;;;25.70;94.60;;;;;;5106218;28;20078;-58
2021/06/29 11:23:32;;;;;;;;;;;25.70;94.60;;;;;;5105994;28;20036;-47
2021/06/29 11:26:15;;;;;;;;;;;25.70;94.50;;;;;;5106008;28;19912;-49
2021/06/29 11:28:43;;;;;;;;;;;25.70;94.50;;;;;;5106441;28;20118;-49
2021/06/29 11:31:31;;;;;;;;;;;25.70;94.70;;;;;;5105827;28;19939;-47
2021/06/29 11:34:03;;;;;;;;;;;25.70;94.50;;;;;;5105846;28;19908;-48
2021/06/29 11:36:29;;;;;;;;;;;25.80;94.50;;;;;;5105285;28;19915;-47
2021/06/29 11:39:00;;;;;;;;;;;25.80;94.60;;;;;;5105758;28;19908;-46
2021/06/29 11:41:26;;;;;;;;;;;25.80;94.50;;;;;;5105545;28;19900;-47
2021/06/29 11:43:52;;;;;;;;;;;25.90;94.60;;;;;;5105616;28;20085;-46
2021/06/29 11:46:37;;;;;;;;;;;26.10;94.20;;;;;;5105423;28;19953;-56
2021/06/29 11:49:07;;;;;;;;;;;26.30;93.80;;;;;;5105343;28;19946;-48
2021/06/29 11:51:53;;;;;;;;;;;26.60;93.40;;;;;;5105477;28;19942;-51
2021/06/29 11:54:32;;;;;;;;;;;26.80;93.00;;;;;;5105352;28;20101;-46
2021/06/29 11:57:12;;;;;;;;;;;27.00;92.60;;;;;;5105569;28;19915;-50
2021/06/29 11:59:38;;;;;;;;;;;27.10;92.30;;;;;;5105269;28;20276;-48
2021/06/29 12:02:06;;;;;;;;;;;27.20;92.30;;;;;;5105418;28;20104;-49
2021/06/29 12:04:33;;;;;;;;;;;27.10;92.30;;;;;;5105217;28;19907;-44
2021/06/29 12:07:03;;;;;;;;;;;27.10;92.40;;;;;;5105103;28;19947;-52
2021/06/29 12:09:31;;;;;;;;;;;27.10;92.40;;;;;;5105155;28;19900;-54
2021/06/29 12:12:16;;;;;;;;;;;27.10;92.30;;;;;;5105104;28;19915;-53
2021/06/29 12:14:42;;;;;;;;;;;27.20;92.40;;;;;;5105039;28;19906;-50
2021/06/29 12:17:08;;;;;;;;;;;27.10;92.40;;;;;;5105130;28;20188;-57
2021/06/29 12:19:34;;;;;;;;;;;27.10;92.40;;;;;;5104805;28;19957;-48
2021/06/29 12:22:00;;;;;;;;;;;27.10;92.50;;;;;;5103859;28;19908;-50
2021/06/29 12:24:27;;;;;;;;;;;27.10;92.60;;;;;;5104987;28;19899;-46
2021/06/29 12:26:53;;;;;;;;;;;27.00;92.60;;;;;;5104696;28;20203;-52
2021/06/29 12:29:37;;;;;;;;;;;27.00;92.60;;;;;;5104906;28;19975;-53
2021/06/29 12:32:17;;;;;;;;;;;27.00;92.60;;;;;;5104743;28;19931;-52
2021/06/29 12:34:43;;;;;;;;;;;27.10;92.50;;;;;;5104763;28;20196;-49
2021/06/29 12:37:10;;;;;;;;;;;27.10;92.50;;;;;;5103544;28;20189;-47
2021/06/29 12:39:36;;;;;;;;;;;27.20;92.40;;;;;;5104488;28;19907;-46
2021/06/29 12:42:13;;;;;;;;;;;27.20;92.30;;;;;;5104817;28;19908;-48
2021/06/29 12:44:39;;;;;;;;;;;27.30;92.20;;;;;;5104445;28;19975;-50
2021/06/29 12:47:10;;;;;;;;;;;27.30;92.20;;;;;;5103917;28;20092;-47
2021/06/29 12:49:37;;;;;;;;;;;27.30;92.10;;;;;;5104554;28;19904;-46
2021/06/29 12:52:09;;;;;;;;;;;27.40;92.00;;;;;;5104555;28;19911;-53
2021/06/29 12:54:36;;;;;;;;;;;27.40;92.00;;;;;;5104596;28;20073;-50
2021/06/29 12:57:04;;;;;;;;;;;27.40;92.00;;;;;;5104734;28;20100;-53
2021/06/29 12:59:32;;;;;;;;;;;27.50;92.00;;;;;;5104370;28;19904;-46
2021/06/29 13:02:03;;;;;;;;;;;27.50;92.00;;;;;;5104309;28;19904;-46
2021/06/29 13:04:35;;;;;;;;;;;27.50;92.00;;;;;;5103188;28;19941;-50
2021/06/29 13:07:05;;;;;;;;;;;27.50;92.20;;;;;;5104214;28;19916;-46
2021/06/29 13:09:38;;;;;;;;;;;27.60;92.00;;;;;;5104442;28;19904;-45
2021/06/29 13:12:07;;;;;;;;;;;27.60;91.90;;;;;;5104283;28;19971;-47
2021/06/29 13:14:33;;;;;;;;;;;27.60;91.90;;;;;;5104229;28;20089;-52
2021/06/29 13:17:01;;;;;;;;;;;27.70;91.90;;;;;;5104325;28;20013;-54
2021/06/29 13:19:27;;;;;;;;;;;27.70;91.90;;;;;;5104155;28;20198;-50
2021/06/29 13:22:00;;;;;;;;;;;27.80;92.00;;;;;;5104135;28;19904;-47
2021/06/29 13:24:38;;;;;;;;;;;27.80;91.90;;;;;;5104366;28;19904;-51
2021/06/29 13:27:05;;;;;;;;;;;27.80;91.90;;;;;;5104443;28;20279;-45
2021/06/29 13:29:33;;;;;;;;;;;27.80;91.90;;;;;;5104219;28;19904;-51
2021/06/29 13:32:04;;;;;;;;;;;27.90;91.90;;;;;;5104107;28;19904;-52
2021/06/29 13:34:33;;;;;;;;;;;27.80;92.00;;;;;;5104591;28;19904;-50
2021/06/29 13:37:17;;;;;;;;;;;27.80;92.00;;;;;;5104527;28;19904;-47
2021/06/29 13:39:44;;;;;;;;;;;27.90;92.00;;;;;;5104279;28;19975;-49
2021/06/29 13:42:18;;;;;;;;;;;27.80;92.00;;;;;;5102969;28;19914;-50
2021/06/29 13:44:54;;;;;;;;;;;27.90;92.10;;;;;;5103900;28;19900;-48
2021/06/29 13:47:20;;;;;;;;;;;27.80;92.20;;;;;;5104365;28;19915;-52
2021/06/29 13:50:05;;;;;;;;;;;27.80;92.20;;;;;;5104039;28;19900;-46
2021/06/29 13:52:31;;;;;;;;;;;27.80;92.10;;;;;;5104280;28;19915;-44
2021/06/29 13:55:08;;;;;;;;;;;27.90;92.10;;;;;;5104083;28;19900;-45
2021/06/29 13:57:39;;;;;;;;;;;27.80;92.00;;;;;;5104648;28;20093;-49
2021/06/29 14:00:23;;;;;;;;;;;27.90;92.10;;;;;;5106673;28;19935;-47
2021/06/29 14:03:06;;;;;;;;;;;27.90;91.80;;;;;;5107901;28;19912;-48
2021/06/29 14:05:34;;;;;;;;;;;27.90;92.00;;;;;;5107702;28;19903;-48
2021/06/29 14:08:12;;;;;;;;;;;27.90;91.90;;;;;;5107739;28;20188;-44
2021/06/29 14:10:38;;;;;;;;;;;27.90;91.90;;;;;;5107425;28;19900;-50
2021/06/29 14:13:04;;;;;;;;;;;27.90;92.00;;;;;;5107689;28;19983;-46
2021/06/29 14:15:31;;;;;;;;;;;27.90;91.90;;;;;;5107477;28;19900;-46
2021/06/29 14:17:57;;;;;;;;;;;28.00;91.90;;;;;;5107737;28;19908;-46
2021/06/29 14:20:23;;;;;;;;;;;28.00;92.00;;;;;;5106991;28;20088;-43
2021/06/29 14:22:53;;;;;;;;;;;28.00;91.90;;;;;;5107019;28;19954;-45
2021/06/29 14:25:19;;;;;;;;;;;28.10;92.30;;;;;;5107164;28;20175;-56
2021/06/29 14:27:50;;;;;;;;;;;28.20;91.90;;;;;;5107153;28;19911;-53